Portada
METAR-TAF:

METAR-TAF

Aeroports :

Midway, Estats Units d'Amèrica

latitud: 28-13N, longitud: 177-22W, altitud: 4 m

Observació

L'informe es va fer fa 43 minuts, a les 14:56 UTC
Vent 9 kt del Est
Temperatura 21°C
Humitat 83%
Pressió 1019 hPa
Visibilitat: 16.1 km
Cel cobert a una alçada de 3800 ft

METAR: PMDY 081456Z AUTO 10009KT 10SM OVC038 21/18 A3009 RMK AO2 SLP187 T02060178 56006

Hora: 05:39 (15:39 UTC)

Pronòstic

L'informe es va fer fa 4 hores i 17 minuts, a les 11:22 UTC
Pronòstic vàlid del 08 a les 12 UTC al 09 a les 12 UTC
Vent 10 kt del Est/Nord-Est
Visibilitat: 10 km
Cel ennuvolat a una alçada de 1500 ft
Cel cobert a una alçada de 3500 ft

TAF: PMDY 081122Z 0812/0912 07010KT P6SM BKN015 OVC035

Observacions i pronòstics meteorològics de més de 4000 aeroports (METAR i TAF).

Les estacions disponibles són els punts grocs i vermells al mapa.

Posi el ratolí al punt desitjat per veure el nom de l'estació.

Feu clic per veure les observacions i els pronòstics meteorològics.

Per canviar el mapa: feu clic els botons verds amb una creu de color negre per apropar; al botó verd amb un guió per allunyar la imatge; o en les fletxes verdes per a mapes adjacents.


METAR-TAF: